Time;durP1;ratioP1;P1;durP2;ratioP2;P2;SDS_P1;SDS_P2;PMS_P1;PMS_P2;Temp;Humidity;BMP_temperature;BMP_pressure;BME280_temperature;BME280_humidity;BME280_pressure;Samples;Min_cycle;Max_cycle;Signal;HPM_P1;HPM_P2
2022/08/10 00:01:48;;;;;;;3.10;3.00;;;;;;;15.41;100.00;97860.19;4967400;28;20232;-65
2022/08/10 00:04:18;;;;;;;3.27;2.97;;;;;;;15.34;100.00;97858.31;4967663;28;20280;-65
2022/08/10 00:06:49;;;;;;;3.40;3.10;;;;;;;15.34;100.00;97857.47;4963086;28;20726;-63
2022/08/10 00:09:18;;;;;;;3.27;3.17;;;;;;;15.34;100.00;97868.16;4917412;28;20278;-63
2022/08/10 00:11:46;;;;;;;4.00;3.30;;;;;;;15.15;100.00;97861.69;4967325;28;20324;-65
2022/08/10 00:14:14;;;;;;;3.57;3.27;;;;;;;15.16;100.00;97868.66;4961211;28;20949;-65
2022/08/10 00:16:42;;;;;;;5.07;3.00;;;;;;;15.17;100.00;97865.81;4962547;28;20336;-64
2022/08/10 00:19:11;;;;;;;3.33;3.13;;;;;;;15.04;100.00;97865.72;4970644;28;20263;-64
2022/08/10 00:21:39;;;;;;;3.40;3.20;;;;;;;15.01;100.00;97864.28;4958210;28;20213;-63
2022/08/10 00:24:07;;;;;;;2.90;2.80;;;;;;;14.87;100.00;97866.03;4928210;28;20218;-66
2022/08/10 00:26:37;;;;;;;3.37;3.17;;;;;;;15.00;100.00;97859.13;4963644;28;20304;-63
2022/08/10 00:29:25;;;;;;;3.63;3.33;;;;;;;15.02;100.00;97860.59;4962211;28;20202;-63
2022/08/10 00:31:53;;;;;;;3.23;3.10;;;;;;;15.02;100.00;97857.94;4965672;28;20206;-64
2022/08/10 00:34:26;;;;;;;3.83;3.43;;;;;;;14.83;100.00;97858.59;4970503;28;20713;-63
2022/08/10 00:36:54;;;;;;;3.57;3.33;;;;;;;14.86;100.00;97853.72;4948444;28;20494;-63
2022/08/10 00:39:22;;;;;;;3.77;3.57;;;;;;;14.92;100.00;97853.94;4924423;28;20206;-63
2022/08/10 00:41:53;;;;;;;3.90;3.67;;;;;;;14.95;100.00;97854.38;4967488;28;20544;-64
2022/08/10 00:44:35;;;;;;;4.10;3.70;;;;;;;14.81;100.00;97842.81;4966157;28;20210;-62
2022/08/10 00:47:04;;;;;;;4.07;3.77;;;;;;;14.85;100.00;97849.41;4965260;28;20815;-63
2022/08/10 00:49:32;;;;;;;3.97;3.53;;;;;;;14.78;100.00;97845.88;4967296;28;20210;-63
2022/08/10 00:52:01;;;;;;;3.30;3.00;;;;;;;14.57;100.00;97850.19;4969333;28;20205;-65
2022/08/10 00:54:29;;;;;;;3.57;3.37;;;;;;;14.55;100.00;97854.06;4920944;28;20672;-65
2022/08/10 00:56:59;;;;;;;3.43;3.13;;;;;;;14.56;100.00;97845.88;4960956;28;20312;-64
2022/08/10 00:59:45;;;;;;;3.90;3.57;;;;;;;14.57;100.00;97839.53;4963294;28;20292;-65
2022/08/10 01:02:28;;;;;;;4.13;3.93;;;;;;;14.55;100.00;97840.72;4965016;28;20548;-62
2022/08/10 01:04:58;;;;;;;3.90;3.60;;;;;;;14.48;100.00;97841.50;4952009;28;20263;-65
2022/08/10 01:08:04;;;;;;;3.50;3.30;;;;;;;14.44;100.00;97840.25;4962448;28;20263;-61
2022/08/10 01:10:40;;;;;;;3.73;3.53;;;;;;;14.45;100.00;97846.41;4912574;28;20875;-63
2022/08/10 01:13:15;;;;;;;3.73;3.53;;;;;;;14.18;100.00;97852.31;4968511;28;20229;-65
2022/08/10 01:15:54;;;;;;;4.43;4.00;;;;;;;14.19;100.00;97853.94;4965583;28;20352;-65
2022/08/10 01:18:30;;;;;;;4.97;3.60;;;;;;;14.12;100.00;97853.06;4967471;28;20221;-63
2022/08/10 01:21:29;;;;;;;3.50;3.30;;;;;;;14.03;100.00;97851.56;4950621;28;20213;-63
2022/08/10 01:24:19;;;;;;;3.63;3.40;;;;;;;13.95;100.00;97844.50;4964242;28;20619;-65
2022/08/10 01:27:12;;;;;;;4.30;4.00;;;;;;;13.76;100.00;97851.28;4902669;28;20654;-64
2022/08/10 01:30:04;;;;;;;4.70;3.90;;;;;;;13.83;100.00;97840.69;4963703;28;20241;-64
2022/08/10 01:32:40;;;;;;;3.70;3.50;;;;;;;13.88;100.00;97852.44;4958366;28;20237;-65
2022/08/10 01:35:13;;;;;;;5.17;4.70;;;;;;;13.92;100.00;97854.72;4950041;28;20477;-65
2022/08/10 01:37:46;;;;;;;3.80;3.60;;;;;;;13.91;100.00;97855.75;4967394;28;20292;-64
2022/08/10 01:40:23;;;;;;;4.10;3.90;;;;;;;13.87;100.00;97856.13;4949413;28;20474;-63
2022/08/10 01:42:53;;;;;;;4.20;4.00;;;;;;;13.88;100.00;97859.59;4970242;28;20605;-62
2022/08/10 01:45:24;;;;;;;3.90;3.50;;;;;;;13.85;100.00;97847.50;4921412;28;21564;-62
2022/08/10 01:50:46;;;;;;;3.97;3.60;;;;;;;13.76;100.00;97853.94;4966396;28;20248;-65
2022/08/10 01:53:32;;;;;;;3.60;3.40;;;;;;;13.68;100.00;97852.22;4966980;28;20209;-66
2022/08/10 01:56:09;;;;;;;4.10;3.90;;;;;;;13.76;100.00;97848.59;4946041;28;20325;-67
2022/08/10 01:58:38;;;;;;;4.47;4.17;;;;;;;13.78;100.00;97853.75;4963409;28;20677;-63
2022/08/10 02:01:10;;;;;;;4.60;3.80;;;;;;;13.63;100.00;97843.94;4921109;28;20225;-66
2022/08/10 02:03:45;;;;;;;3.93;3.60;;;;;;;13.73;100.00;97846.31;4965695;28;20216;-64
2022/08/10 02:06:35;;;;;;;4.70;4.30;;;;;;;13.62;100.00;97852.94;4948434;28;20264;-66
2022/08/10 02:09:04;;;;;;;4.50;4.20;;;;;;;13.57;100.00;97852.69;4962911;28;20307;-64
2022/08/10 02:11:34;;;;;;;4.03;3.83;;;;;;;13.56;100.00;97846.56;4949582;28;20217;-64
2022/08/10 02:14:24;;;;;;;3.87;3.57;;;;;;;13.53;100.00;97852.25;4963054;28;20202;-64
2022/08/10 02:17:02;;;;;;;4.60;4.20;;;;;;;13.52;100.00;97847.94;4915737;28;20320;-61
2022/08/10 02:19:30;;;;;;;4.10;3.80;;;;;;;13.55;100.00;97850.22;4962831;28;20267;-65
2022/08/10 02:22:09;;;;;;;4.90;4.53;;;;;;;13.49;100.00;97844.81;4933417;28;20658;-62
2022/08/10 02:24:59;;;;;;;3.90;3.53;;;;;;;13.26;100.00;97846.56;4949122;28;20868;-61
2022/08/10 02:27:28;;;;;;;4.83;4.43;;;;;;;13.21;100.00;97850.78;4964372;28;20261;-65
2022/08/10 02:29:57;;;;;;;3.83;3.63;;;;;;;13.34;100.00;97845.66;4962791;28;20237;-63
2022/08/10 02:32:28;;;;;;;4.50;4.30;;;;;;;13.33;100.00;97851.97;4913804;28;20214;-65
2022/08/10 02:35:08;;;;;;;4.47;4.17;;;;;;;13.34;100.00;97847.47;4958128;28;20208;-65
2022/08/10 02:37:50;;;;;;;5.67;4.40;;;;;;;13.24;100.00;97845.91;4928075;28;20229;-65
2022/08/10 02:40:19;;;;;;;4.30;4.00;;;;;;;13.23;100.00;97854.06;4963499;28;20241;-65
2022/08/10 02:43:19;;;;;;;4.77;4.53;;;;;;;13.17;100.00;97845.00;4965815;28;20714;-65
2022/08/10 02:46:11;;;;;;;4.80;4.50;;;;;;;13.10;100.00;97847.56;4959063;28;20694;-64
2022/08/10 02:49:02;;;;;;;4.47;4.23;;;;;;;13.06;100.00;97856.94;4933321;28;20225;-65
2022/08/10 02:51:36;;;;;;;4.70;4.43;;;;;;;13.12;100.00;97853.53;4962418;28;20245;-63
2022/08/10 02:54:28;;;;;;;4.93;4.57;;;;;;;13.07;100.00;97852.44;4951480;28;20392;-63
2022/08/10 02:57:05;;;;;;;5.30;4.77;;;;;;;12.91;100.00;97845.47;4939183;28;20437;-64
2022/08/10 02:59:40;;;;;;;4.43;4.13;;;;;;;12.93;100.00;97852.25;4964373;28;20222;-63
2022/08/10 03:02:12;;;;;;;4.80;4.50;;;;;;;12.85;100.00;97855.81;4909089;28;20221;-66
2022/08/10 03:04:45;;;;;;;4.93;4.53;;;;;;;12.90;100.00;97860.59;4960553;28;20217;-62
2022/08/10 03:07:25;;;;;;;4.47;4.23;;;;;;;12.93;100.00;97859.41;4962837;28;20229;-63
2022/08/10 03:10:15;;;;;;;4.97;4.57;;;;;;;12.90;100.00;97849.94;4965151;28;20580;-64
2022/08/10 03:12:44;;;;;;;4.70;4.50;;;;;;;12.84;100.00;97856.00;4936989;28;20218;-62
2022/08/10 03:15:13;;;;;;;4.90;4.60;;;;;;;12.81;100.00;97856.38;4965385;28;20214;-63
2022/08/10 03:17:43;;;;;;;4.50;4.10;;;;;;;12.95;100.00;97852.06;4911858;28;20232;-62
2022/08/10 03:20:31;;;;;;;4.50;4.20;;;;;;;12.82;100.00;97845.53;4966511;28;20287;-62
2022/08/10 03:23:09;;;;;;;4.73;4.50;;;;;;;12.86;100.00;97848.66;4961077;28;20201;-65
2022/08/10 03:25:40;;;;;;;4.93;4.43;;;;;;;12.77;100.00;97847.91;4943709;28;20221;-62
2022/08/10 03:28:22;;;;;;;5.37;4.80;;;;;;;12.71;100.00;97852.16;4946428;28;20220;-64
2022/08/10 03:30:51;;;;;;;4.87;4.57;;;;;;;12.81;100.00;97853.72;4963296;28;20356;-65
2022/08/10 03:33:20;;;;;;;4.97;4.67;;;;;;;12.78;100.00;97848.75;4921104;28;20214;-64
2022/08/10 03:35:51;;;;;;;5.57;5.17;;;;;;;12.79;100.00;97853.06;4963456;28;20676;-64
2022/08/10 03:38:40;;;;;;;5.23;4.70;;;;;;;12.67;100.00;97848.19;4906475;28;20304;-65
2022/08/10 03:41:12;;;;;;;4.70;4.40;;;;;;;12.71;100.00;97849.50;4949888;28;20244;-63
2022/08/10 03:43:46;;;;;;;4.87;4.53;;;;;;;12.66;100.00;97859.00;4966700;28;20205;-64
2022/08/10 03:46:16;;;;;;;4.40;4.20;;;;;;;12.52;100.00;97863.28;4942784;28;20316;-64
2022/08/10 03:48:45;;;;;;;5.33;4.93;;;;;;;12.44;100.00;97859.69;4969125;28;20216;-65
2022/08/10 03:51:19;;;;;;;5.10;4.80;;;;;;;12.49;100.00;97860.97;4965986;28;20609;-65
2022/08/10 03:53:47;;;;;;;5.20;4.90;;;;;;;12.47;100.00;97871.78;4911620;28;20217;-65
2022/08/10 03:56:34;;;;;;;5.20;4.70;;;;;;;12.50;100.00;97866.13;4965186;28;20308;-64
2022/08/10 03:59:03;;;;;;;4.80;4.50;;;;;;;12.49;100.00;97863.66;4959222;28;20248;-62
2022/08/10 04:01:32;;;;;;;6.60;6.00;;;;;;;12.43;100.00;97860.69;4932576;28;20215;-63
2022/08/10 04:04:20;;;;;;;5.03;4.70;;;;;;;12.45;100.00;97861.34;4968232;28;20202;-64
2022/08/10 04:06:54;;;;;;;5.20;4.90;;;;;;;12.38;100.00;97868.38;4971428;28;20232;-65
2022/08/10 04:09:23;;;;;;;4.80;4.37;;;;;;;12.37;100.00;97864.09;4913696;28;20292;-64
2022/08/10 04:12:10;;;;;;;5.10;4.80;;;;;;;12.39;100.00;97878.00;4962991;28;20663;-63
2022/08/10 04:14:39;;;;;;;5.43;5.13;;;;;;;12.42;100.00;97869.69;4927120;28;20291;-62
2022/08/10 04:17:17;;;;;;;5.20;4.70;;;;;;;12.42;100.00;97868.84;4967492;28;20232;-63
2022/08/10 04:20:07;;;;;;;5.90;5.50;;;;;;;12.34;100.00;97867.09;4968127;28;20308;-64
2022/08/10 04:22:36;;;;;;;5.23;4.93;;;;;;;12.40;100.00;97874.34;4969069;28;20201;-63
2022/08/10 04:25:05;;;;;;;5.87;5.37;;;;;;;12.39;100.00;97877.16;4898088;28;20237;-63
2022/08/10 04:27:34;;;;;;;5.83;5.30;;;;;;;12.35;100.00;97875.88;4966179;28;20467;-62
2022/08/10 04:30:02;;;;;;;5.63;5.17;;;;;;;12.36;100.00;97883.69;4945683;28;20734;-65
2022/08/10 04:32:31;;;;;;;5.40;4.90;;;;;;;12.37;100.00;97882.69;4968783;28;20217;-62
2022/08/10 04:35:00;;;;;;;5.13;4.83;;;;;;;12.33;100.00;97883.19;4967212;28;20358;-64
2022/08/10 04:37:28;;;;;;;5.97;5.47;;;;;;;12.43;100.00;97897.91;4969116;28;20232;-62
2022/08/10 04:39:58;;;;;;;5.00;4.60;;;;;;;12.53;100.00;97895.00;4877840;28;21635;-67
2022/08/10 04:42:26;;;;;;;5.37;4.97;;;;;;;12.50;100.00;97892.72;4965130;28;20384;-61
2022/08/10 04:44:55;;;;;;;5.40;5.10;;;;;;;12.60;100.00;97887.13;4935308;28;20209;-63
2022/08/10 04:47:23;;;;;;;5.90;5.43;;;;;;;12.69;100.00;97895.88;4942538;28;20237;-64
2022/08/10 04:50:11;;;;;;;5.83;5.40;;;;;;;12.77;100.00;97892.31;4942548;28;20834;-60
2022/08/10 04:52:43;;;;;;;6.20;5.80;;;;;;;12.85;100.00;97897.53;4963212;28;20210;-65
2022/08/10 04:55:13;;;;;;;5.40;5.10;;;;;;;13.01;100.00;97896.56;4934932;28;20253;-61
2022/08/10 04:57:41;;;;;;;5.23;4.93;;;;;;;13.06;100.00;97901.31;4968312;28;20210;-64
2022/08/10 05:00:10;;;;;;;5.10;4.80;;;;;;;13.14;100.00;97895.94;4966384;28;20299;-61
2022/08/10 05:02:46;;;;;;;5.07;4.77;;;;;;;13.26;100.00;97897.13;4946017;28;20576;-64
2022/08/10 05:05:14;;;;;;;5.00;4.60;;;;;;;13.42;100.00;97897.94;4963817;28;20206;-61
2022/08/10 05:07:43;;;;;;;5.97;5.43;;;;;;;13.64;100.00;97901.53;4967711;28;20199;-64
2022/08/10 05:10:25;;;;;;;5.30;4.90;;;;;;;13.77;100.00;97895.53;4925121;28;21922;-65
2022/08/10 05:12:54;;;;;;;6.13;5.57;;;;;;;13.99;100.00;97895.56;4946546;28;20206;-64
2022/08/10 05:15:23;;;;;;;5.93;5.53;;;;;;;14.12;100.00;97890.38;4963811;28;20201;-66
2022/08/10 05:17:51;;;;;;;5.40;4.90;;;;;;;14.30;100.00;97892.59;4945858;28;20210;-65
2022/08/10 05:20:36;;;;;;;5.23;4.93;;;;;;;14.48;100.00;97891.34;4967927;28;20229;-66
2022/08/10 05:23:06;;;;;;;5.53;5.13;;;;;;;14.66;100.00;97876.72;4966197;28;20225;-63
2022/08/10 05:25:35;;;;;;;4.87;4.47;;;;;;;14.79;100.00;97887.53;4912810;28;21762;-66
2022/08/10 05:28:05;;;;;;;5.23;4.50;;;;;;;14.94;100.00;97886.59;4942198;28;20281;-63
2022/08/10 05:30:34;;;;;;;5.87;5.37;;;;;;;15.11;100.00;97889.78;4963150;28;20232;-66
2022/08/10 05:33:02;;;;;;;5.00;4.70;;;;;;;15.27;100.00;97896.66;4946164;28;20214;-65
2022/08/10 05:35:37;;;;;;;4.80;4.40;;;;;;;15.44;100.00;97887.28;4962033;28;20232;-65
2022/08/10 05:38:26;;;;;;;5.00;4.60;;;;;;;15.55;100.00;97891.25;4937687;28;20321;-65
2022/08/10 05:40:59;;;;;;;5.03;4.57;;;;;;;15.71;100.00;97891.91;4967139;28;20257;-66
2022/08/10 05:43:27;;;;;;;4.83;4.40;;;;;;;15.94;100.00;97885.47;4916016;28;20218;-66
2022/08/10 05:45:55;;;;;;;4.93;4.53;;;;;;;15.98;100.00;97894.72;4904585;28;20770;-66
2022/08/10 05:48:44;;;;;;;4.33;4.03;;;;;;;15.98;100.00;97887.53;4942130;28;20914;-66
2022/08/10 05:51:28;;;;;;;7.13;3.93;;;;;;;16.10;100.00;97885.09;4946627;28;20753;-64
2022/08/10 05:53:56;;;;;;;5.20;4.90;;;;;;;16.24;100.00;97885.13;4940379;28;20591;-66
2022/08/10 05:56:35;;;;;;;4.23;3.93;;;;;;;16.34;100.00;97882.88;4964023;28;20412;-67
2022/08/10 05:59:25;;;;;;;4.20;3.90;;;;;;;16.54;100.00;97884.75;4962725;28;20249;-65
2022/08/10 06:02:16;;;;;;;3.87;3.57;;;;;;;16.73;100.00;97883.09;4915142;28;20307;-65
2022/08/10 06:05:06;;;;;;;4.17;3.97;;;;;;;16.78;100.00;97881.44;4961053;28;20481;-65
2022/08/10 06:07:37;;;;;;;4.63;4.23;;;;;;;16.76;100.00;97875.47;4944245;28;20889;-68
2022/08/10 06:10:08;;;;;;;4.27;3.83;;;;;;;16.84;100.00;97878.97;4944594;28;20869;-65
2022/08/10 06:12:39;;;;;;;4.33;3.93;;;;;;;17.03;100.00;97880.00;4962106;28;20414;-66
2022/08/10 06:15:25;;;;;;;3.90;3.70;;;;;;;17.26;100.00;97878.72;4921461;28;20587;-64
2022/08/10 06:18:15;;;;;;;4.00;3.70;;;;;;;17.45;100.00;97877.84;4967534;28;20723;-64
2022/08/10 06:20:43;;;;;;;5.13;3.80;;;;;;;17.58;100.00;97890.34;4960912;28;20790;-65
2022/08/10 06:23:12;;;;;;;4.10;3.67;;;;;;;17.79;100.00;97886.56;4948234;28;20328;-64
2022/08/10 06:25:40;;;;;;;3.80;3.60;;;;;;;17.98;100.00;97883.16;4942334;28;20226;-66
2022/08/10 06:28:33;;;;;;;2.87;2.50;;;;;;;18.18;100.00;97886.59;4959931;28;20312;-65
2022/08/10 06:31:01;;;;;;;3.10;2.90;;;;;;;18.31;100.00;97888.38;4920371;28;20351;-67
2022/08/10 06:33:32;;;;;;;2.80;2.70;;;;;;;18.55;100.00;97893.97;4958750;28;20236;-67
2022/08/10 06:36:01;;;;;;;26.73;24.03;;;;;;;18.63;100.00;97890.19;4961658;28;20229;-66
2022/08/10 06:38:32;;;;;;;30.97;27.83;;;;;;;18.86;94.96;97888.78;4950273;28;20746;-65
2022/08/10 06:41:02;;;;;;;3.47;3.17;;;;;;;18.99;88.08;97877.94;4949283;28;20299;-65
2022/08/10 06:43:33;;;;;;;3.07;2.93;;;;;;;19.13;86.01;97889.38;4957975;28;20643;-65
2022/08/10 06:46:05;;;;;;;5.90;2.93;;;;;;;19.09;84.70;97878.25;4967834;28;20639;-67
2022/08/10 06:48:39;;;;;;;2.67;2.43;;;;;;;19.37;85.86;97890.38;4919500;28;20827;-66
2022/08/10 06:51:08;;;;;;;2.90;2.70;;;;;;;19.45;82.50;97896.47;4963050;28;20472;-67
2022/08/10 06:53:38;;;;;;;2.83;2.60;;;;;;;19.42;79.62;97883.50;4948529;28;20802;-65
2022/08/10 06:56:23;;;;;;;2.90;2.70;;;;;;;19.54;80.67;97892.47;4946462;28;20234;-64
2022/08/10 06:59:10;;;;;;;5.00;2.53;;;;;;;19.55;78.63;97896.78;4965641;28;20205;-65
2022/08/10 07:01:52;;;;;;;3.40;3.20;;;;;;;19.59;80.08;97881.84;4963468;28;20471;-67
2022/08/10 07:04:24;;;;;;;3.47;2.77;;;;;;;19.78;78.83;97882.66;4911195;28;20224;-63
2022/08/10 07:07:03;;;;;;;3.60;2.70;;;;;;;19.88;74.16;97879.41;4964201;28;20225;-66
2022/08/10 07:09:32;;;;;;;2.67;2.53;;;;;;;20.01;74.25;97883.81;4951049;28;20233;-65
2022/08/10 07:12:01;;;;;;;3.00;2.27;;;;;;;20.21;73.41;97880.03;4944808;28;20260;-65
2022/08/10 07:14:40;;;;;;;3.33;3.03;;;;;;;20.35;71.14;97877.97;4961705;28;20308;-66
2022/08/10 07:17:25;;;;;;;2.60;2.40;;;;;;;20.54;71.83;97881.41;4962368;28;20869;-66
2022/08/10 07:19:56;;;;;;;3.47;3.13;;;;;;;20.45;68.90;97875.53;4947554;28;20608;-67
2022/08/10 07:22:27;;;;;;;2.80;2.60;;;;;;;20.59;70.06;97878.00;4959542;28;20283;-61
2022/08/10 07:25:17;;;;;;;2.60;2.50;;;;;;;20.69;68.23;97875.59;4935507;28;20312;-65
2022/08/10 07:27:47;;;;;;;2.70;2.57;;;;;;;20.78;67.72;97876.88;4945499;28;20221;-67
2022/08/10 07:30:31;;;;;;;2.30;2.20;;;;;;;20.84;65.18;97874.31;4959257;28;20240;-63
2022/08/10 07:33:01;;;;;;;3.20;2.90;;;;;;;20.87;64.37;97876.53;4962026;28;20252;-66
2022/08/10 07:35:30;;;;;;;2.63;2.43;;;;;;;21.01;64.36;97874.44;4913334;28;20451;-65
2022/08/10 07:38:15;;;;;;;3.53;2.20;;;;;;;21.20;66.65;97875.94;4963802;28;20662;-66
2022/08/10 07:40:44;;;;;;;6.67;3.60;;;;;;;21.40;59.86;97878.28;4935875;28;21377;-63
2022/08/10 07:43:13;;;;;;;2.87;2.67;;;;;;;21.50;61.14;97876.84;4962552;28;20237;-64
2022/08/10 07:45:42;;;;;;;2.40;2.20;;;;;;;21.64;61.24;97867.44;4949074;28;20491;-65
2022/08/10 07:48:20;;;;;;;2.60;2.37;;;;;;;21.43;57.76;97868.88;4956413;28;20209;-60
2022/08/10 07:50:49;;;;;;;2.30;2.20;;;;;;;21.55;58.04;97882.34;4947289;28;20217;-65
2022/08/10 07:53:20;;;;;;;5.13;2.50;;;;;;;21.53;58.75;97881.75;4909868;28;20218;-66
2022/08/10 07:55:48;;;;;;;3.47;2.50;;;;;;;21.61;56.91;97877.88;4957408;28;20431;-66
2022/08/10 07:58:41;;;;;;;2.27;2.17;;;;;;;21.62;56.73;97871.44;4959679;28;20210;-64
2022/08/10 08:01:21;;;;;;;2.57;2.40;;;;;;;21.79;59.44;97877.72;4964568;28;20681;-66
2022/08/10 08:03:51;;;;;;;2.33;2.23;;;;;;;21.99;54.11;97879.19;4961251;28;20210;-66
2022/08/10 08:06:45;;;;;;;2.30;2.20;;;;;;;22.16;51.81;97883.78;4926820;28;20226;-62
2022/08/10 08:09:14;;;;;;;2.90;2.50;;;;;;;22.26;53.32;97883.97;4959962;28;20618;-66
2022/08/10 08:11:44;;;;;;;2.57;2.30;;;;;;;22.35;52.02;97877.13;4941818;28;20735;-65
2022/08/10 08:14:13;;;;;;;4.83;2.27;;;;;;;22.39;50.83;97880.16;4965176;28;20210;-66
2022/08/10 08:16:46;;;;;;;2.47;2.37;;;;;;;22.46;52.65;97897.03;4964082;28;20794;-64
2022/08/10 08:19:15;;;;;;;2.83;2.63;;;;;;;22.29;50.75;97882.69;4965566;28;20218;-65
2022/08/10 08:22:04;;;;;;;2.93;2.07;;;;;;;22.16;53.01;97892.72;4966667;28;20842;-66
2022/08/10 08:24:53;;;;;;;2.87;2.63;;;;;;;22.17;51.36;97880.03;4920379;28;20914;-65
2022/08/10 08:27:21;;;;;;;2.07;1.97;;;;;;;22.15;52.39;97879.47;4946438;28;20240;-66
2022/08/10 08:29:51;;;;;;;2.73;1.83;;;;;;;22.32;52.09;97871.41;4966081;28;20300;-67
2022/08/10 08:32:22;;;;;;;2.67;2.20;;;;;;;22.43;52.01;97885.88;4967298;28;20256;-65
2022/08/10 08:34:54;;;;;;;2.40;2.20;;;;;;;22.50;51.42;97876.56;4965227;28;20259;-64
2022/08/10 08:37:24;;;;;;;2.17;2.07;;;;;;;22.41;50.10;97876.16;4970641;28;20227;-65
2022/08/10 08:40:19;;;;;;;2.50;2.30;;;;;;;22.37;49.35;97871.47;4964720;28;20751;-67
2022/08/10 08:43:12;;;;;;;3.47;2.03;;;;;;;22.68;49.41;97877.41;4946232;28;20226;-66
2022/08/10 08:45:52;;;;;;;2.40;2.10;;;;;;;22.93;49.39;97879.69;4960461;28;20237;-65
2022/08/10 08:48:43;;;;;;;2.53;2.33;;;;;;;22.88;47.19;97878.78;4965396;28;20229;-66
2022/08/10 08:51:18;;;;;;;2.57;2.37;;;;;;;23.00;47.56;97871.41;4965282;28;20210;-65
2022/08/10 08:54:15;;;;;;;5.63;2.10;;;;;;;22.78;46.93;97871.38;4915916;28;20263;-67
2022/08/10 08:56:53;;;;;;;2.30;2.10;;;;;;;22.81;47.18;97871.66;4960664;28;20237;-65
2022/08/10 08:59:36;;;;;;;2.50;2.00;;;;;;;22.77;45.91;97867.84;4951786;28;20205;-67
2022/08/10 09:02:18;;;;;;;3.00;2.80;;;;;;;22.84;45.96;97864.97;4959939;28;20490;-68
2022/08/10 09:04:59;;;;;;;2.40;2.00;;;;;;;23.08;45.44;97862.06;4964006;28;20233;-66
2022/08/10 09:07:58;;;;;;;1.90;1.80;;;;;;;23.08;44.56;97854.78;4965178;28;20221;-63
2022/08/10 09:10:37;;;;;;;1.97;1.77;;;;;;;23.25;44.77;97856.63;4961176;28;20741;-65
2022/08/10 09:13:10;;;;;;;2.10;2.00;;;;;;;23.26;44.23;97863.69;4947201;28;20213;-66
2022/08/10 09:15:42;;;;;;;4.17;2.43;;;;;;;23.46;42.50;97855.00;4965031;28;20615;-63
2022/08/10 09:18:16;;;;;;;1.83;1.73;;;;;;;23.56;42.08;97843.50;4963405;28;20221;-66
2022/08/10 09:20:50;;;;;;;1.87;1.77;;;;;;;23.77;41.82;97843.75;4963881;28;20217;-64
2022/08/10 09:23:24;;;;;;;2.47;2.27;;;;;;;23.93;40.40;97831.22;4963287;28;20249;-66
2022/08/10 09:26:19;;;;;;;2.23;2.13;;;;;;;23.51;39.98;97844.28;4963579;28;20838;-67
2022/08/10 09:28:50;;;;;;;2.70;2.37;;;;;;;23.58;39.75;97843.28;4942373;28;20202;-65
2022/08/10 09:31:44;;;;;;;2.83;2.10;;;;;;;23.73;38.75;97838.03;4960266;28;20233;-64
2022/08/10 09:34:39;;;;;;;3.03;2.40;;;;;;;24.09;38.07;97851.94;4964945;28;20305;-67
2022/08/10 09:37:33;;;;;;;3.27;2.13;;;;;;;23.92;37.57;97835.78;4966364;28;20241;-65
2022/08/10 09:40:25;;;;;;;3.23;1.90;;;;;;;24.29;37.59;97853.22;4914557;28;20214;-67
2022/08/10 09:43:19;;;;;;;1.93;1.83;;;;;;;24.23;37.43;97846.94;4967783;28;20720;-66
2022/08/10 09:45:59;;;;;;;2.27;2.07;;;;;;;24.21;37.62;97843.69;4949442;28;20370;-67
2022/08/10 09:48:32;;;;;;;2.37;1.97;;;;;;;24.02;38.86;97837.81;4965574;28;20663;-65
2022/08/10 09:51:07;;;;;;;2.57;2.47;;;;;;;24.12;40.33;97826.28;4960082;28;20455;-65
2022/08/10 09:54:02;;;;;;;2.60;2.50;;;;;;;24.34;38.04;97831.63;4963210;28;20386;-66
2022/08/10 09:56:36;;;;;;;2.00;1.93;;;;;;;24.48;39.40;97825.75;4914836;28;20236;-64
2022/08/10 09:59:12;;;;;;;3.80;2.10;;;;;;;24.59;38.12;97827.44;4920413;28;20201;-62
2022/08/10 10:02:21;;;;;;;2.20;2.00;;;;;;;24.68;37.13;97827.78;4960110;28;20205;-66
2022/08/10 10:04:59;;;;;;;2.70;2.50;;;;;;;24.57;36.95;97829.59;4963094;28;20382;-65
2022/08/10 10:07:28;;;;;;;3.03;2.13;;;;;;;24.42;37.29;97827.59;4960525;28;20229;-67
2022/08/10 10:10:02;;;;;;;2.20;2.10;;;;;;;24.42;37.00;97827.59;4958963;28;20209;-64
2022/08/10 10:12:40;;;;;;;2.20;2.10;;;;;;;24.52;38.00;97824.16;4964403;28;20284;-67
2022/08/10 10:15:21;;;;;;;2.23;2.13;;;;;;;24.52;37.58;97816.84;4912976;28;20522;-68
2022/08/10 10:18:27;;;;;;;2.17;2.07;;;;;;;24.55;36.13;97808.22;4961701;28;20524;-64
2022/08/10 10:21:07;;;;;;;2.33;2.23;;;;;;;24.04;36.36;97807.78;4951524;28;20691;-63
2022/08/10 10:23:44;;;;;;;2.00;1.90;;;;;;;23.68;37.04;97802.81;4963356;28;20746;-65
2022/08/10 10:26:41;;;;;;;1.97;1.87;;;;;;;23.90;37.45;97801.94;4964794;28;20226;-66
2022/08/10 10:29:14;;;;;;;3.00;1.87;;;;;;;24.48;36.03;97794.09;4962487;28;20218;-62
2022/08/10 10:32:09;;;;;;;1.87;1.77;;;;;;;24.42;36.54;97805.94;4876008;28;20330;-65
2022/08/10 10:34:43;;;;;;;2.40;2.20;;;;;;;23.80;37.29;97808.06;4925864;28;20218;-67
2022/08/10 10:37:12;;;;;;;2.13;2.03;;;;;;;23.87;37.08;97799.75;4920996;28;20428;-67
2022/08/10 10:39:44;;;;;;;2.07;1.87;;;;;;;23.69;36.87;97801.72;4925296;28;20599;-66
2022/08/10 10:42:24;;;;;;;3.17;2.37;;;;;;;23.52;37.09;97791.84;4922762;28;20507;-65
2022/08/10 10:45:17;;;;;;;2.50;2.30;;;;;;;23.62;37.62;97784.88;4924454;28;20489;-65
2022/08/10 10:48:02;;;;;;;3.27;3.07;;;;;;;23.54;37.69;97794.25;4883235;28;20218;-64
2022/08/10 10:50:37;;;;;;;2.60;2.40;;;;;;;23.47;38.17;97788.25;4925717;28;20239;-67
2022/08/10 10:53:09;;;;;;;4.57;2.03;;;;;;;23.42;38.36;97775.47;4923040;28;20268;-64
2022/08/10 10:55:45;;;;;;;2.63;2.43;;;;;;;23.37;38.87;97780.81;4929701;28;20322;-66
2022/08/10 10:58:41;;;;;;;2.23;2.03;;;;;;;23.72;38.14;97776.06;4921921;28;20697;-66
2022/08/10 11:01:14;;;;;;;2.40;2.17;;;;;;;24.36;38.26;97779.88;4873330;28;20713;-63
2022/08/10 11:03:57;;;;;;;2.40;1.93;;;;;;;24.40;38.25;97792.66;4923715;28;20228;-67
2022/08/10 11:06:38;;;;;;;5.70;2.27;;;;;;;24.39;38.25;97788.31;4922261;28;20253;-67
2022/08/10 11:09:20;;;;;;;2.23;2.13;;;;;;;24.55;38.58;97791.13;4921421;28;20749;-64
2022/08/10 11:12:16;;;;;;;1.90;1.80;;;;;;;24.75;37.00;97782.34;4922781;28;20277;-65
2022/08/10 11:14:54;;;;;;;2.20;2.10;;;;;;;24.76;37.77;97780.47;4926561;28;20210;-65
2022/08/10 11:17:25;;;;;;;3.53;2.10;;;;;;;25.07;37.82;97778.72;4877910;28;20900;-67
2022/08/10 11:19:59;;;;;;;2.23;2.07;;;;;;;25.19;36.86;97777.69;4926211;28;20211;-64
2022/08/10 11:22:36;;;;;;;2.07;1.97;;;;;;;25.58;35.25;97778.13;4929100;28;20678;-66
2022/08/10 11:25:09;;;;;;;2.40;2.30;;;;;;;24.67;35.72;97789.06;4919611;28;20314;-66
2022/08/10 11:27:47;;;;;;;2.70;2.50;;;;;;;24.55;36.23;97781.13;4929826;28;20218;-66
2022/08/10 11:30:19;;;;;;;2.97;2.27;;;;;;;24.88;37.04;97774.84;4938498;28;20522;-67
2022/08/10 11:32:57;;;;;;;1.97;1.87;;;;;;;24.91;35.63;97791.38;4919411;28;20217;-67
2022/08/10 11:35:31;;;;;;;2.50;2.20;;;;;;;25.54;35.48;97781.63;4960906;28;20294;-67
2022/08/10 11:38:07;;;;;;;2.17;2.00;;;;;;;25.83;34.15;97786.59;4960976;28;20206;-64
2022/08/10 11:41:01;;;;;;;3.37;1.90;;;;;;;26.44;34.02;97774.16;4960920;28;20317;-66
2022/08/10 11:43:56;;;;;;;2.00;1.90;;;;;;;26.04;32.72;97781.19;4962255;28;20716;-63
2022/08/10 11:46:31;;;;;;;2.00;1.90;;;;;;;26.52;32.61;97770.88;4959817;28;20245;-67
2022/08/10 11:49:06;;;;;;;3.13;2.40;;;;;;;26.51;31.94;97761.09;4913735;28;20228;-63
2022/08/10 11:51:42;;;;;;;2.23;2.10;;;;;;;26.41;32.91;97759.19;4966615;28;20720;-67
2022/08/10 11:54:18;;;;;;;2.53;2.23;;;;;;;26.26;32.96;97760.03;4961306;28;20756;-64
2022/08/10 11:56:49;;;;;;;2.03;1.93;;;;;;;26.32;33.49;97757.31;4963406;28;20643;-66
2022/08/10 12:02:07;;;;;;;2.40;2.20;;;;;;;26.23;31.60;97759.78;4927509;28;20243;-61
2022/08/10 12:04:36;;;;;;;2.20;2.10;;;;;;;27.10;31.38;97756.09;4962856;28;20315;-66
2022/08/10 12:07:05;;;;;;;2.33;2.07;;;;;;;26.97;31.52;97754.75;4913350;28;20240;-66
2022/08/10 12:09:54;;;;;;;1.63;1.63;;;;;;;26.31;32.09;97761.94;4951516;28;20206;-66
2022/08/10 12:12:45;;;;;;;1.77;1.77;;;;;;;25.97;31.85;97770.59;4964209;28;20555;-67
2022/08/10 12:15:17;;;;;;;2.20;2.10;;;;;;;25.77;32.56;97763.25;4949896;28;20237;-65
2022/08/10 12:17:50;;;;;;;2.60;2.50;;;;;;;25.71;32.90;97765.13;4966614;28;20419;-64
2022/08/10 12:20:26;;;;;;;2.10;1.93;;;;;;;25.74;32.57;97751.00;4967258;28;20210;-62